createdAt,value
2022-08-05T00:01:35.522Z,14.58
2022-08-05T00:04:42.602Z,14.45
2022-08-05T00:08:00.621Z,14.44
2022-08-05T00:11:20.616Z,14.95
2022-08-05T00:14:34.480Z,15.55
2022-08-05T00:17:40.972Z,15.57
2022-08-05T00:20:48.157Z,14.99
2022-08-05T00:24:10.589Z,15.08
2022-08-05T00:27:19.219Z,15.09
2022-08-05T00:30:29.203Z,14.71
2022-08-05T00:34:54.080Z,14.25
2022-08-05T00:37:11.307Z,13.84
2022-08-05T00:40:27.439Z,13.51
2022-08-05T00:43:47.034Z,13.87
2022-08-05T00:47:02.129Z,13.95
2022-08-05T00:50:11.347Z,14.49
2022-08-05T00:54:00.921Z,14.28
2022-08-05T00:56:51.819Z,14.09
2022-08-05T01:00:00.420Z,14.16
2022-08-05T01:03:07.827Z,13.42
2022-08-05T01:06:15.432Z,13.45
2022-08-05T01:09:21.923Z,13.39
2022-08-05T01:12:29.695Z,13.54
2022-08-05T01:15:48.241Z,13.57
2022-08-05T01:19:07.317Z,13.61
2022-08-05T01:22:34.112Z,13.61
2022-08-05T01:25:56.354Z,13.26
2022-08-05T01:29:07.331Z,13.14
2022-08-05T01:32:19.975Z,13.18
2022-08-05T01:35:52.107Z,13.00
2022-08-05T01:39:01.019Z,13.45
2022-08-05T01:42:10.534Z,13.96
2022-08-05T01:45:22.267Z,13.83
2022-08-05T01:48:31.549Z,14.07
2022-08-05T01:51:39.682Z,13.24
2022-08-05T01:54:52.824Z,13.26
2022-08-05T01:58:10.214Z,13.37
2022-08-05T02:01:25.271Z,13.82
2022-08-05T02:04:35.643Z,14.02
2022-08-05T02:07:57.897Z,14.34
2022-08-05T02:11:11.813Z,14.52
2022-08-05T02:14:23.295Z,14.44
2022-08-05T02:18:28.535Z,14.52
2022-08-05T02:21:14.712Z,14.23
2022-08-05T02:24:24.388Z,14.27
2022-08-05T02:27:58.900Z,14.25
2022-08-05T02:31:04.058Z,14.35
2022-08-05T02:34:13.053Z,14.27
2022-08-05T02:37:21.498Z,14.01
2022-08-05T02:40:28.378Z,13.25
2022-08-05T02:43:35.577Z,13.07
2022-08-05T02:47:03.172Z,13.37
2022-08-05T02:50:14.678Z,12.94
2022-08-05T02:53:25.073Z,12.52
2022-08-05T02:56:36.431Z,12.13
2022-08-05T02:59:50.487Z,12.18
2022-08-05T03:02:59.374Z,12.04
2022-08-05T03:06:55.504Z,12.61
2022-08-05T03:09:37.609Z,12.43
2022-08-05T03:12:44.968Z,12.06
2022-08-05T03:15:58.391Z,11.92
2022-08-05T03:19:17.458Z,12.41
2022-08-05T03:22:32.837Z,12.58
2022-08-05T03:26:04.818Z,13.05
2022-08-05T03:29:07.710Z,12.58
2022-08-05T03:32:20.695Z,12.88
2022-08-05T03:35:40.738Z,12.59
2022-08-05T03:38:53.297Z,12.61
2022-08-05T03:41:59.618Z,12.40
2022-08-05T03:45:22.086Z,11.96
2022-08-05T03:48:29.681Z,11.79
2022-08-05T03:52:37.710Z,11.76
2022-08-05T03:56:05.518Z,12.07
2022-08-05T03:58:41.133Z,12.07
2022-08-05T04:01:50.574Z,12.84
2022-08-05T04:04:58.747Z,13.15
2022-08-05T04:08:30.372Z,13.47
2022-08-05T04:11:47.129Z,13.70
2022-08-05T04:14:54.890Z,13.91
2022-08-05T04:18:06.772Z,13.54
2022-08-05T04:21:14.312Z,13.54
2022-08-05T04:24:43.992Z,13.48
2022-08-05T04:27:58.088Z,13.53
2022-08-05T04:31:08.255Z,13.95
2022-08-05T04:34:31.729Z,14.26
2022-08-05T04:38:02.995Z,14.68
2022-08-05T04:41:05.896Z,14.29
2022-08-05T04:44:16.233Z,14.28
2022-08-05T04:47:30.851Z,14.60
2022-08-05T04:51:02.654Z,14.97
2022-08-05T04:54:16.608Z,14.67
2022-08-05T04:57:24.035Z,15.18
2022-08-05T05:00:38.905Z,15.62
2022-08-05T05:03:45.693Z,16.10
2022-08-05T05:06:52.067Z,15.78
2022-08-05T05:10:06.543Z,16.44
2022-08-05T05:13:14.935Z,16.49
2022-08-05T05:16:22.551Z,16.07
2022-08-05T05:19:44.335Z,16.68
2022-08-05T05:22:53.886Z,17.02
2022-08-05T05:26:00.065Z,17.33
2022-08-05T05:29:14.393Z,17.55
2022-08-05T05:32:22.871Z,17.59
2022-08-05T05:35:34.244Z,17.86
2022-08-05T05:38:44.708Z,18.43
2022-08-05T05:41:54.500Z,18.89
2022-08-05T05:45:01.272Z,17.93
2022-08-05T05:48:10.894Z,18.74
2022-08-05T05:51:23.043Z,18.64
2022-08-05T05:54:49.908Z,18.32
2022-08-05T05:57:55.599Z,19.04
2022-08-05T06:01:12.790Z,19.40
2022-08-05T06:04:22.066Z,19.91
2022-08-05T06:07:42.127Z,19.49
2022-08-05T06:10:52.512Z,19.81
2022-08-05T06:14:00.276Z,20.42
2022-08-05T06:17:24.209Z,20.55
2022-08-05T06:20:32.456Z,20.53
2022-08-05T06:23:43.850Z,20.83
2022-08-05T06:26:52.274Z,20.87
2022-08-05T06:30:04.259Z,21.03
2022-08-05T06:33:12.390Z,21.54
2022-08-05T06:36:26.746Z,21.20
2022-08-05T06:39:43.860Z,21.77
2022-08-05T06:42:52.615Z,21.65
2022-08-05T06:46:03.603Z,21.74
2022-08-05T06:49:10.649Z,21.97
2022-08-05T06:52:36.989Z,22.08
2022-08-05T06:55:44.446Z,22.38
2022-08-05T06:58:51.974Z,22.58
2022-08-05T07:01:58.313Z,23.01
2022-08-05T07:05:05.014Z,23.46
2022-08-05T07:08:23.580Z,23.40
2022-08-05T07:11:32.273Z,23.54
2022-08-05T07:15:01.117Z,24.19
2022-08-05T07:18:09.829Z,24.36
2022-08-05T07:21:17.800Z,23.77
2022-08-05T07:24:35.108Z,24.33
2022-08-05T07:27:57.741Z,25.13
2022-08-05T07:31:10.109Z,24.47
2022-08-05T07:34:21.168Z,24.88
2022-08-05T07:37:37.521Z,25.04
2022-08-05T07:40:47.565Z,25.41
2022-08-05T07:44:02.636Z,25.31
2022-08-05T07:47:10.403Z,25.79
2022-08-05T07:50:24.964Z,25.81
2022-08-05T07:53:50.477Z,26.35
2022-08-05T07:57:02.367Z,26.62
2022-08-05T08:00:24.602Z,26.44
2022-08-05T08:03:44.345Z,26.08
2022-08-05T08:06:51.336Z,26.30
2022-08-05T08:09:57.551Z,27.49
2022-08-05T08:13:05.604Z,26.88
2022-08-05T08:16:35.842Z,27.46
2022-08-05T08:20:43.664Z,27.85
2022-08-05T08:23:04.736Z,27.59
2022-08-05T08:26:10.923Z,28.05
2022-08-05T08:29:29.622Z,28.46
2022-08-05T08:32:46.069Z,28.16
2022-08-05T08:36:07.820Z,28.44
2022-08-05T08:39:20.052Z,28.78
2022-08-05T08:42:34.478Z,29.49
2022-08-05T08:45:56.565Z,29.60
2022-08-05T08:50:22.276Z,29.57
2022-08-05T08:52:33.543Z,29.58
2022-08-05T08:56:04.478Z,29.50
2022-08-05T08:59:19.368Z,29.51
2022-08-05T09:02:29.447Z,29.19
2022-08-05T09:05:38.664Z,29.40
2022-08-05T09:09:03.427Z,29.96
2022-08-05T09:12:20.486Z,30.53
2022-08-05T09:15:37.073Z,30.34
2022-08-05T09:18:45.678Z,30.71
2022-08-05T09:22:21.889Z,30.39
2022-08-05T09:25:23.981Z,30.85
2022-08-05T09:28:31.959Z,30.76
2022-08-05T09:32:41.097Z,31.36
2022-08-05T09:35:26.649Z,30.93
2022-08-05T09:38:33.986Z,31.51
2022-08-05T09:42:00.790Z,31.88
2022-08-05T09:46:04.707Z,31.18
2022-08-05T09:48:38.464Z,30.66
2022-08-05T09:51:49.694Z,30.60
2022-08-05T09:54:59.905Z,31.05
2022-08-05T09:58:14.131Z,31.29
2022-08-05T10:01:31.945Z,31.36
2022-08-05T10:04:41.176Z,31.41
2022-08-05T10:08:36.136Z,31.56
2022-08-05T10:11:18.740Z,32.07
2022-08-05T10:14:27.180Z,30.94
2022-08-05T10:17:37.177Z,31.67
2022-08-05T10:20:48.624Z,32.69
2022-08-05T10:24:00.366Z,32.64
2022-08-05T10:27:08.005Z,31.02
2022-08-05T10:31:19.958Z,31.27
2022-08-05T10:33:42.533Z,31.73
2022-08-05T10:36:49.319Z,30.41
2022-08-05T10:40:17.387Z,30.82
2022-08-05T10:43:35.846Z,30.57
2022-08-05T10:46:51.144Z,29.74
2022-08-05T10:50:32.695Z,29.57
2022-08-05T10:53:42.573Z,29.42
2022-08-05T10:56:56.141Z,29.32
2022-08-05T11:00:19.775Z,30.61
2022-08-05T11:03:27.497Z,30.12
2022-08-05T11:06:35.526Z,31.12
2022-08-05T11:09:47.055Z,32.05
2022-08-05T11:12:55.991Z,32.41
2022-08-05T11:16:47.779Z,31.78
2022-08-05T11:20:10.311Z,31.26
2022-08-05T11:24:03.129Z,31.15
2022-08-05T11:27:37.035Z,30.74
2022-08-05T11:31:57.290Z,29.80
2022-08-05T11:35:00.594Z,30.75
2022-08-05T11:38:26.587Z,30.27
2022-08-05T11:42:01.508Z,30.23
2022-08-05T11:45:05.375Z,30.38
2022-08-05T11:48:13.369Z,29.52
2022-08-05T11:51:44.775Z,29.60
2022-08-05T11:54:54.962Z,29.40
2022-08-05T11:58:09.298Z,30.05
2022-08-05T12:01:19.919Z,31.00
2022-08-05T12:04:29.392Z,31.36
2022-08-05T12:08:03.757Z,31.75
2022-08-05T12:11:06.654Z,32.23
2022-08-05T12:14:12.896Z,33.27
2022-08-05T12:18:04.292Z,32.23
2022-08-05T12:20:48.498Z,31.17
2022-08-05T12:24:04.537Z,31.69
2022-08-05T12:27:21.528Z,31.66
2022-08-05T12:30:39.336Z,32.33
2022-08-05T12:33:53.186Z,32.26
2022-08-05T12:37:10.676Z,32.23
2022-08-05T12:40:26.914Z,32.92
2022-08-05T12:43:35.020Z,33.53
2022-08-05T12:46:54.250Z,32.45
2022-08-05T12:50:06.419Z,32.58
2022-08-05T12:53:18.704Z,33.05
2022-08-05T12:56:34.862Z,33.26
2022-08-05T13:01:58.386Z,33.12
2022-08-05T13:03:15.936Z,32.89
2022-08-05T13:06:22.964Z,31.55
2022-08-05T13:09:31.875Z,31.37
2022-08-05T13:12:42.703Z,31.48
2022-08-05T13:15:57.552Z,30.57
2022-08-05T13:19:04.806Z,31.10
2022-08-05T13:22:12.087Z,32.80
2022-08-05T13:25:22.021Z,33.24
2022-08-05T13:28:48.324Z,32.92
2022-08-05T13:32:04.758Z,31.84
2022-08-05T13:35:11.627Z,31.42
2022-08-05T13:38:28.489Z,31.00
2022-08-05T13:41:42.380Z,30.72
2022-08-05T13:44:51.760Z,30.76
2022-08-05T13:48:09.128Z,30.26
2022-08-05T13:51:36.525Z,30.83
2022-08-05T13:54:53.397Z,30.92
2022-08-05T13:58:01.221Z,30.71
2022-08-05T14:01:07.768Z,31.25
2022-08-05T14:04:31.498Z,31.88
2022-08-05T14:08:00.832Z,32.27
2022-08-05T14:11:20.581Z,31.71
2022-08-05T14:14:33.528Z,31.00
2022-08-05T14:17:40.396Z,30.65
2022-08-05T14:20:48.936Z,30.81
2022-08-05T14:24:00.635Z,31.46
2022-08-05T14:27:18.165Z,32.46
2022-08-05T14:30:27.907Z,32.59
2022-08-05T14:33:59.983Z,32.96
2022-08-05T14:37:01.195Z,32.91
2022-08-05T14:40:08.819Z,32.51
2022-08-05T14:43:15.318Z,33.36
2022-08-05T14:46:28.874Z,32.20
2022-08-05T14:49:59.232Z,31.87
2022-08-05T14:53:02.331Z,31.63
2022-08-05T14:56:09.364Z,31.06
2022-08-05T14:59:18.476Z,30.86
2022-08-05T15:02:29.161Z,31.30
2022-08-05T15:06:13.282Z,31.14
2022-08-05T15:09:03.838Z,31.57
2022-08-05T15:12:11.592Z,31.75
2022-08-05T15:15:54.616Z,31.30
2022-08-05T15:18:50.385Z,30.68
2022-08-05T15:22:00.281Z,31.38
2022-08-05T15:25:12.018Z,31.07
2022-08-05T15:28:20.385Z,34.38
2022-08-05T15:31:34.907Z,31.78
2022-08-05T15:34:42.887Z,29.95
2022-08-05T15:38:34.490Z,30.11
2022-08-05T15:41:22.937Z,29.96
2022-08-05T15:44:30.993Z,29.58
2022-08-05T15:47:37.338Z,29.41
2022-08-05T15:50:48.660Z,29.08
2022-08-05T15:53:55.184Z,29.33
2022-08-05T15:57:07.611Z,29.23
2022-08-05T16:00:17.035Z,29.32
2022-08-05T16:03:36.560Z,29.12
2022-08-05T16:06:49.085Z,29.13
2022-08-05T16:09:55.182Z,28.78
2022-08-05T16:13:01.075Z,28.57
2022-08-05T16:16:07.975Z,28.43
2022-08-05T16:19:25.491Z,28.30
2022-08-05T16:22:44.201Z,28.13
2022-08-05T16:25:55.812Z,28.12
2022-08-05T16:29:02.414Z,27.94
2022-08-05T16:32:09.898Z,27.92
2022-08-05T16:35:17.141Z,27.78
2022-08-05T16:38:28.085Z,27.48
2022-08-05T16:42:12.836Z,27.56
2022-08-05T16:45:01.105Z,27.34
2022-08-05T16:48:07.635Z,27.66
2022-08-05T16:51:17.068Z,27.43
2022-08-05T16:54:28.894Z,27.18
2022-08-05T16:57:52.919Z,27.13
2022-08-05T17:01:00.360Z,26.76
2022-08-05T17:04:07.223Z,26.70
2022-08-05T17:07:13.910Z,26.37
2022-08-05T17:10:41.736Z,26.26
2022-08-05T17:13:48.372Z,26.52
2022-08-05T17:16:54.707Z,26.45
2022-08-05T17:20:01.235Z,26.01
2022-08-05T17:23:08.590Z,25.95
2022-08-05T17:26:36.682Z,25.66
2022-08-05T17:29:45.754Z,25.57
2022-08-05T17:32:53.733Z,25.46
2022-08-05T17:36:08.918Z,25.29
2022-08-05T17:39:33.339Z,25.44
2022-08-05T17:42:50.526Z,25.24
2022-08-05T17:45:57.928Z,25.39
2022-08-05T17:49:06.164Z,25.36
2022-08-05T17:52:13.718Z,25.61
2022-08-05T17:55:21.990Z,25.28
2022-08-05T17:58:32.568Z,25.23
2022-08-05T18:01:49.497Z,25.05
2022-08-05T18:04:56.830Z,24.81
2022-08-05T18:08:05.149Z,24.67
2022-08-05T18:11:11.461Z,25.20
2022-08-05T18:14:32.612Z,25.30
2022-08-05T18:18:00.987Z,24.68
2022-08-05T18:21:13.279Z,24.87
2022-08-05T18:24:26.089Z,24.63
2022-08-05T18:27:33.440Z,24.44
2022-08-05T18:30:41.623Z,24.46
2022-08-05T18:33:51.517Z,24.63
2022-08-05T18:36:58.363Z,24.64
2022-08-05T18:41:03.362Z,24.50
2022-08-05T18:43:37.876Z,24.71
2022-08-05T18:46:50.446Z,24.61
2022-08-05T18:50:15.662Z,24.09
2022-08-05T18:53:24.694Z,24.17
2022-08-05T18:56:32.628Z,24.01
2022-08-05T18:59:43.925Z,24.00
2022-08-05T19:03:06.531Z,24.12
2022-08-05T19:06:21.435Z,24.07
2022-08-05T19:09:28.543Z,23.86
2022-08-05T19:12:46.420Z,23.66
2022-08-05T19:16:00.064Z,23.73
2022-08-05T19:19:10.589Z,23.79
2022-08-05T19:22:27.509Z,23.60
2022-08-05T19:25:39.220Z,23.51
2022-08-05T19:28:49.940Z,23.26
2022-08-05T19:31:57.335Z,22.79
2022-08-05T19:35:06.668Z,22.68
2022-08-05T19:38:13.199Z,22.77
2022-08-05T19:41:58.434Z,22.37
2022-08-05T19:44:48.008Z,22.34
2022-08-05T19:47:55.826Z,22.30
2022-08-05T19:51:03.343Z,22.62
2022-08-05T19:54:22.811Z,22.72
2022-08-05T19:57:57.256Z,22.48
2022-08-05T20:01:03.186Z,22.42
2022-08-05T20:04:11.733Z,22.26
2022-08-05T20:07:48.076Z,22.29
2022-08-05T20:10:45.860Z,22.07
2022-08-05T20:14:11.967Z,21.82
2022-08-05T20:17:19.258Z,21.83
2022-08-05T20:20:29.878Z,21.99
2022-08-05T20:23:50.192Z,21.77
2022-08-05T20:26:57.729Z,21.53
2022-08-05T20:30:03.925Z,21.32
2022-08-05T20:33:10.530Z,21.09
2022-08-05T20:36:17.957Z,21.00
2022-08-05T20:39:25.975Z,20.49
2022-08-05T20:42:43.573Z,20.63
2022-08-05T20:45:56.607Z,20.58
2022-08-05T20:49:03.914Z,20.41
2022-08-05T20:52:12.663Z,20.57
2022-08-05T20:55:56.310Z,20.42
2022-08-05T20:58:47.557Z,20.36
2022-08-05T21:01:58.544Z,20.30
2022-08-05T21:05:05.743Z,20.33
2022-08-05T21:08:15.509Z,20.21
2022-08-05T21:12:09.643Z,20.20
2022-08-05T21:14:50.055Z,20.39
2022-08-05T21:17:56.403Z,20.36
2022-08-05T21:21:03.866Z,20.01
2022-08-05T21:24:12.889Z,19.90
2022-08-05T21:27:27.103Z,19.77
2022-08-05T21:30:34.060Z,19.68
2022-08-05T21:33:40.611Z,19.82
2022-08-05T21:36:46.670Z,19.60
2022-08-05T21:39:55.592Z,19.63
2022-08-05T21:43:05.730Z,19.51
2022-08-05T21:46:14.368Z,20.01
2022-08-05T21:49:59.422Z,19.55
2022-08-05T21:52:47.312Z,18.86
2022-08-05T21:56:06.136Z,18.72
2022-08-05T21:59:24.112Z,17.99
2022-08-05T22:02:32.572Z,18.06
2022-08-05T22:05:48.868Z,17.88
2022-08-05T22:08:55.566Z,18.24
2022-08-05T22:12:03.549Z,18.49
2022-08-05T22:16:00.781Z,18.56
2022-08-05T22:18:49.119Z,18.62
2022-08-05T22:21:56.091Z,18.62
2022-08-05T22:25:27.515Z,18.64
2022-08-05T22:28:37.831Z,18.56
2022-08-05T22:31:46.047Z,18.26
2022-08-05T22:35:01.623Z,18.10
2022-08-05T22:38:09.941Z,17.58
2022-08-05T22:42:04.353Z,17.98
2022-08-05T22:44:56.337Z,17.91
2022-08-05T22:48:05.517Z,18.12
2022-08-05T22:51:16.070Z,17.41
2022-08-05T22:54:29.480Z,16.91
2022-08-05T22:57:36.523Z,17.65
2022-08-05T23:00:42.901Z,17.87
2022-08-05T23:03:58.503Z,18.04
2022-08-05T23:07:06.991Z,17.86
2022-08-05T23:10:13.637Z,17.67
2022-08-05T23:13:20.097Z,17.62
2022-08-05T23:16:40.230Z,16.88
2022-08-05T23:19:56.196Z,17.07
2022-08-05T23:23:03.634Z,16.81
2022-08-05T23:26:14.033Z,16.86
2022-08-05T23:29:21.538Z,16.85
2022-08-05T23:32:28.281Z,16.74
2022-08-05T23:35:36.293Z,17.21
2022-08-05T23:38:44.097Z,17.46
2022-08-05T23:41:50.486Z,17.41
2022-08-05T23:44:57.075Z,17.27
2022-08-05T23:48:04.451Z,16.78
2022-08-05T23:51:12.551Z,17.39
2022-08-05T23:54:25.848Z,17.38
2022-08-05T23:57:32.644Z,17.24
